Transavia B737 at Rotterdam!Transavia B737 at Rotterdam!

  RTB (Hubpage) - Quick select - Wed, 2020-10-21    Follow us at Facebook Follow us at twitter Follow us at Flickr Follow us at You Tube
Boeing 737-7K2W from Transavia at Rotterdam.
 Airplane:Boeing 737-7K2W from Transavia. LARGER
 Regi:PH-XRZ
 MSN Year:33462 2003-03
 Date of picture:2006-07-24 13:08
 Position:B Apron
 Flight: DEP ALC HV5053 Alicante Airport Spain
 Acars log: PH-XRZ (B737 HV) 1426 20060724 HV5053 (RTM-ALC) [somewhere]
 METAR: SA 24/07/2006 12:55 METAR EHRD 241255Z 28006KT 240V330 9999 FEW035 26/17 Q1021 NOSIG=
 TAF: FC 24/07/2006 12:08 TAF EHRD 241208Z 241322 27009KT 9999 SCT040 BECMG 1417 34008KT BECMG 1719 02007KT CAVOK==
2006-07-24
 Hits: 624 ID: 120



  Write a comment.

Comments:
Debriefing: Photographed movements of Airports in NW-Europe.
The images of our site attendant is in authorisation from Queen of Sky.
Copying of images of this site have been prohibited in which manner without the authorisation of the photographer.
In behalf of the crew :"Thank you visiting us" - Contact
Say again?
Copyright Boeing 737-7K2W PH-XRZ from Transavia at Rotterdam of De Plane! De Plane! © 2006 - 2020 All rights reserved